sensor_id;sensor_type;location;lat;lon;timestamp;temperature;humidity
23186;DHT22;11761;51.324;4.590;2022-11-06T00:02:24;9.80;99.90
23186;DHT22;11761;51.324;4.590;2022-11-06T00:04:50;9.90;99.90
23186;DHT22;11761;51.324;4.590;2022-11-06T00:07:16;9.90;99.90
23186;DHT22;11761;51.324;4.590;2022-11-06T00:09:42;9.80;99.90
23186;DHT22;11761;51.324;4.590;2022-11-06T00:12:09;9.80;99.90
23186;DHT22;11761;51.324;4.590;2022-11-06T00:14:35;9.80;99.90
23186;DHT22;11761;51.324;4.590;2022-11-06T00:17:01;9.80;99.90
23186;DHT22;11761;51.324;4.590;2022-11-06T00:19:27;9.90;99.90
23186;DHT22;11761;51.324;4.590;2022-11-06T00:21:53;9.90;99.90
23186;DHT22;11761;51.324;4.590;2022-11-06T00:24:19;10.00;99.90
23186;DHT22;11761;51.324;4.590;2022-11-06T00:26:45;10.00;99.90
23186;DHT22;11761;51.324;4.590;2022-11-06T00:29:13;10.00;99.90
23186;DHT22;11761;51.324;4.590;2022-11-06T00:31:39;10.10;99.90
23186;DHT22;11761;51.324;4.590;2022-11-06T00:34:05;10.10;99.90
23186;DHT22;11761;51.324;4.590;2022-11-06T00:36:32;10.10;99.90
23186;DHT22;11761;51.324;4.590;2022-11-06T00:38:59;10.20;99.90
23186;DHT22;11761;51.324;4.590;2022-11-06T00:41:26;10.20;99.90
23186;DHT22;11761;51.324;4.590;2022-11-06T00:43:55;10.20;99.90
23186;DHT22;11761;51.324;4.590;2022-11-06T00:46:22;10.20;99.90
23186;DHT22;11761;51.324;4.590;2022-11-06T00:48:48;10.20;99.90
23186;DHT22;11761;51.324;4.590;2022-11-06T00:51:21;10.10;99.90
23186;DHT22;11761;51.324;4.590;2022-11-06T00:53:53;10.20;99.90
23186;DHT22;11761;51.324;4.590;2022-11-06T00:56:19;10.10;99.90
23186;DHT22;11761;51.324;4.590;2022-11-06T00:58:46;10.20;99.90
23186;DHT22;11761;51.324;4.590;2022-11-06T01:01:16;10.20;99.90
23186;DHT22;11761;51.324;4.590;2022-11-06T01:03:46;10.20;99.90
23186;DHT22;11761;51.324;4.590;2022-11-06T01:06:16;10.20;99.90
23186;DHT22;11761;51.324;4.590;2022-11-06T01:08:42;10.20;99.90
23186;DHT22;11761;51.324;4.590;2022-11-06T01:11:21;10.30;99.90
23186;DHT22;11761;51.324;4.590;2022-11-06T01:13:50;10.30;99.90
23186;DHT22;11761;51.324;4.590;2022-11-06T01:16:17;10.30;99.90
23186;DHT22;11761;51.324;4.590;2022-11-06T01:18:44;10.30;99.90
23186;DHT22;11761;51.324;4.590;2022-11-06T01:21:16;10.30;99.90
23186;DHT22;11761;51.324;4.590;2022-11-06T01:23:43;10.40;99.90
23186;DHT22;11761;51.324;4.590;2022-11-06T01:26:11;10.40;99.90
23186;DHT22;11761;51.324;4.590;2022-11-06T01:28:39;10.40;99.90
23186;DHT22;11761;51.324;4.590;2022-11-06T01:31:08;10.40;99.90
23186;DHT22;11761;51.324;4.590;2022-11-06T01:33:34;10.40;99.90
23186;DHT22;11761;51.324;4.590;2022-11-06T01:36:01;10.40;99.90
23186;DHT22;11761;51.324;4.590;2022-11-06T01:38:27;10.40;99.90
23186;DHT22;11761;51.324;4.590;2022-11-06T01:40:53;10.50;99.90
23186;DHT22;11761;51.324;4.590;2022-11-06T01:43:43;10.50;99.90
23186;DHT22;11761;51.324;4.590;2022-11-06T01:46:10;10.50;99.90
23186;DHT22;11761;51.324;4.590;2022-11-06T01:48:38;10.50;99.90
23186;DHT22;11761;51.324;4.590;2022-11-06T01:51:06;10.50;99.90
23186;DHT22;11761;51.324;4.590;2022-11-06T01:53:33;10.50;99.90
23186;DHT22;11761;51.324;4.590;2022-11-06T01:56:02;10.50;99.90
23186;DHT22;11761;51.324;4.590;2022-11-06T01:58:31;10.50;99.90
23186;DHT22;11761;51.324;4.590;2022-11-06T02:00:58;10.50;99.90
23186;DHT22;11761;51.324;4.590;2022-11-06T02:03:25;10.50;99.90
23186;DHT22;11761;51.324;4.590;2022-11-06T02:05:52;10.50;99.90
23186;DHT22;11761;51.324;4.590;2022-11-06T02:08:20;10.60;99.90
23186;DHT22;11761;51.324;4.590;2022-11-06T02:10:47;10.60;99.90
23186;DHT22;11761;51.324;4.590;2022-11-06T02:13:26;10.60;99.90
23186;DHT22;11761;51.324;4.590;2022-11-06T02:16:14;10.60;99.90
23186;DHT22;11761;51.324;4.590;2022-11-06T02:21:53;10.60;99.90
23186;DHT22;11761;51.324;4.590;2022-11-06T02:27:12;10.60;99.90
23186;DHT22;11761;51.324;4.590;2022-11-06T02:32:23;10.60;99.90
23186;DHT22;11761;51.324;4.590;2022-11-06T02:34:52;10.70;99.90
23186;DHT22;11761;51.324;4.590;2022-11-06T02:37:27;10.70;99.90
23186;DHT22;11761;51.324;4.590;2022-11-06T02:39:56;10.70;99.90
23186;DHT22;11761;51.324;4.590;2022-11-06T02:42:25;10.70;99.90
23186;DHT22;11761;51.324;4.590;2022-11-06T02:44:54;10.70;99.90
23186;DHT22;11761;51.324;4.590;2022-11-06T02:47:22;10.80;99.90
23186;DHT22;11761;51.324;4.590;2022-11-06T02:49:58;10.80;99.90
23186;DHT22;11761;51.324;4.590;2022-11-06T02:52:40;10.80;99.90
23186;DHT22;11761;51.324;4.590;2022-11-06T02:57:54;10.80;99.90
23186;DHT22;11761;51.324;4.590;2022-11-06T03:00:22;10.80;99.90
23186;DHT22;11761;51.324;4.590;2022-11-06T03:03:00;10.80;99.90
23186;DHT22;11761;51.324;4.590;2022-11-06T03:10:43;10.90;99.90
23186;DHT22;11761;51.324;4.590;2022-11-06T03:13:16;10.90;99.90
23186;DHT22;11761;51.324;4.590;2022-11-06T03:18:17;10.90;99.90
23186;DHT22;11761;51.324;4.590;2022-11-06T03:21:02;10.90;99.90
23186;DHT22;11761;51.324;4.590;2022-11-06T03:23:35;10.80;99.90
23186;DHT22;11761;51.324;4.590;2022-11-06T03:28:38;10.90;99.90
23186;DHT22;11761;51.324;4.590;2022-11-06T03:31:11;10.90;99.90
23186;DHT22;11761;51.324;4.590;2022-11-06T03:33:51;10.80;99.90
23186;DHT22;11761;51.324;4.590;2022-11-06T03:36:23;10.80;99.90
23186;DHT22;11761;51.324;4.590;2022-11-06T03:39:04;10.80;99.90
23186;DHT22;11761;51.324;4.590;2022-11-06T03:41:36;10.80;99.90
23186;DHT22;11761;51.324;4.590;2022-11-06T03:44:09;10.80;99.90
23186;DHT22;11761;51.324;4.590;2022-11-06T03:46:42;10.80;99.90
23186;DHT22;11761;51.324;4.590;2022-11-06T03:49:14;10.90;99.90
23186;DHT22;11761;51.324;4.590;2022-11-06T03:51:44;10.80;99.90
23186;DHT22;11761;51.324;4.590;2022-11-06T03:54:28;10.90;99.90
23186;DHT22;11761;51.324;4.590;2022-11-06T03:57:07;10.80;99.90
23186;DHT22;11761;51.324;4.590;2022-11-06T03:59:38;10.80;99.90
23186;DHT22;11761;51.324;4.590;2022-11-06T04:02:07;10.80;99.90
23186;DHT22;11761;51.324;4.590;2022-11-06T04:04:42;10.70;99.90
23186;DHT22;11761;51.324;4.590;2022-11-06T04:07:12;10.70;99.90
23186;DHT22;11761;51.324;4.590;2022-11-06T04:09:41;10.60;99.90
23186;DHT22;11761;51.324;4.590;2022-11-06T04:12:29;10.50;99.90
23186;DHT22;11761;51.324;4.590;2022-11-06T04:15:17;10.40;99.90
23186;DHT22;11761;51.324;4.590;2022-11-06T04:17:45;10.40;99.90
23186;DHT22;11761;51.324;4.590;2022-11-06T04:20:15;10.40;99.90
23186;DHT22;11761;51.324;4.590;2022-11-06T04:23:29;10.30;99.90
23186;DHT22;11761;51.324;4.590;2022-11-06T04:26:03;10.30;99.90
23186;DHT22;11761;51.324;4.590;2022-11-06T04:32:18;10.20;99.90
23186;DHT22;11761;51.324;4.590;2022-11-06T04:43:04;10.10;99.90
23186;DHT22;11761;51.324;4.590;2022-11-06T04:45:38;10.00;99.90
23186;DHT22;11761;51.324;4.590;2022-11-06T04:48:06;9.90;99.90
23186;DHT22;11761;51.324;4.590;2022-11-06T04:50:37;9.90;99.90
23186;DHT22;11761;51.324;4.590;2022-11-06T04:53:05;9.80;99.90
23186;DHT22;11761;51.324;4.590;2022-11-06T04:55:43;9.80;99.90
23186;DHT22;11761;51.324;4.590;2022-11-06T04:58:11;9.80;99.90
23186;DHT22;11761;51.324;4.590;2022-11-06T05:00:39;9.80;99.90
23186;DHT22;11761;51.324;4.590;2022-11-06T05:03:07;9.70;99.90
23186;DHT22;11761;51.324;4.590;2022-11-06T05:05:33;9.70;99.90
23186;DHT22;11761;51.324;4.590;2022-11-06T05:07:59;9.60;99.90
23186;DHT22;11761;51.324;4.590;2022-11-06T05:10:25;9.60;99.90
23186;DHT22;11761;51.324;4.590;2022-11-06T05:12:51;9.50;99.90
23186;DHT22;11761;51.324;4.590;2022-11-06T05:15:17;9.50;99.90
23186;DHT22;11761;51.324;4.590;2022-11-06T05:17:43;9.50;99.90
23186;DHT22;11761;51.324;4.590;2022-11-06T05:20:10;9.50;99.90
23186;DHT22;11761;51.324;4.590;2022-11-06T05:22:42;9.50;99.90
23186;DHT22;11761;51.324;4.590;2022-11-06T05:25:45;9.50;99.90
23186;DHT22;11761;51.324;4.590;2022-11-06T05:28:11;9.50;99.90
23186;DHT22;11761;51.324;4.590;2022-11-06T05:30:37;9.50;99.90
23186;DHT22;11761;51.324;4.590;2022-11-06T05:33:03;9.40;99.90
23186;DHT22;11761;51.324;4.590;2022-11-06T05:35:30;9.40;99.90
23186;DHT22;11761;51.324;4.590;2022-11-06T05:38:00;9.40;99.90
23186;DHT22;11761;51.324;4.590;2022-11-06T05:40:26;9.40;99.90
23186;DHT22;11761;51.324;4.590;2022-11-06T05:42:52;9.40;99.90
23186;DHT22;11761;51.324;4.590;2022-11-06T05:45:19;9.40;99.90
23186;DHT22;11761;51.324;4.590;2022-11-06T05:47:45;9.40;99.90
23186;DHT22;11761;51.324;4.590;2022-11-06T05:50:11;9.40;99.90
23186;DHT22;11761;51.324;4.590;2022-11-06T05:52:37;9.40;99.90
23186;DHT22;11761;51.324;4.590;2022-11-06T05:55:05;9.30;99.90
23186;DHT22;11761;51.324;4.590;2022-11-06T05:57:31;9.30;99.90
23186;DHT22;11761;51.324;4.590;2022-11-06T05:59:57;9.30;99.90
23186;DHT22;11761;51.324;4.590;2022-11-06T06:02:23;9.30;99.90
23186;DHT22;11761;51.324;4.590;2022-11-06T06:04:49;9.40;99.90
23186;DHT22;11761;51.324;4.590;2022-11-06T06:07:16;9.30;99.90
23186;DHT22;11761;51.324;4.590;2022-11-06T06:09:42;9.30;99.90
23186;DHT22;11761;51.324;4.590;2022-11-06T06:12:10;9.30;99.90
23186;DHT22;11761;51.324;4.590;2022-11-06T06:14:37;9.40;99.90
23186;DHT22;11761;51.324;4.590;2022-11-06T06:17:03;9.40;99.90
23186;DHT22;11761;51.324;4.590;2022-11-06T06:19:29;9.50;99.90
23186;DHT22;11761;51.324;4.590;2022-11-06T06:21:55;9.50;99.90
23186;DHT22;11761;51.324;4.590;2022-11-06T06:24:21;9.50;99.90
23186;DHT22;11761;51.324;4.590;2022-11-06T06:26:47;9.50;99.90
23186;DHT22;11761;51.324;4.590;2022-11-06T06:29:14;9.50;99.90
23186;DHT22;11761;51.324;4.590;2022-11-06T06:31:40;9.50;99.90
23186;DHT22;11761;51.324;4.590;2022-11-06T06:34:06;9.50;99.90
23186;DHT22;11761;51.324;4.590;2022-11-06T06:36:32;9.50;99.90
23186;DHT22;11761;51.324;4.590;2022-11-06T06:38:58;9.50;99.90
23186;DHT22;11761;51.324;4.590;2022-11-06T06:41:24;9.60;99.90
23186;DHT22;11761;51.324;4.590;2022-11-06T06:43:50;9.60;99.90
23186;DHT22;11761;51.324;4.590;2022-11-06T06:46:17;9.60;99.90
23186;DHT22;11761;51.324;4.590;2022-11-06T06:48:43;9.60;99.90
23186;DHT22;11761;51.324;4.590;2022-11-06T06:51:09;9.60;99.90
23186;DHT22;11761;51.324;4.590;2022-11-06T06:53:35;9.60;99.90
23186;DHT22;11761;51.324;4.590;2022-11-06T06:56:02;9.60;99.90
23186;DHT22;11761;51.324;4.590;2022-11-06T06:58:28;9.70;99.90
23186;DHT22;11761;51.324;4.590;2022-11-06T07:01:01;9.60;99.90
23186;DHT22;11761;51.324;4.590;2022-11-06T07:03:28;9.60;99.90
23186;DHT22;11761;51.324;4.590;2022-11-06T07:05:55;9.70;99.90
23186;DHT22;11761;51.324;4.590;2022-11-06T07:08:21;9.70;99.90
23186;DHT22;11761;51.324;4.590;2022-11-06T07:10:47;9.70;99.90
23186;DHT22;11761;51.324;4.590;2022-11-06T07:13:13;9.70;99.90
23186;DHT22;11761;51.324;4.590;2022-11-06T07:15:39;9.70;99.90
23186;DHT22;11761;51.324;4.590;2022-11-06T07:18:06;9.80;99.90
23186;DHT22;11761;51.324;4.590;2022-11-06T07:20:33;9.90;99.90
23186;DHT22;11761;51.324;4.590;2022-11-06T07:23:05;10.00;99.90
23186;DHT22;11761;51.324;4.590;2022-11-06T07:25:31;10.00;99.90
23186;DHT22;11761;51.324;4.590;2022-11-06T07:28:05;10.10;99.90
23186;DHT22;11761;51.324;4.590;2022-11-06T07:30:33;10.10;99.90
23186;DHT22;11761;51.324;4.590;2022-11-06T07:33:00;10.20;99.90
23186;DHT22;11761;51.324;4.590;2022-11-06T07:35:27;10.20;99.90
23186;DHT22;11761;51.324;4.590;2022-11-06T07:37:54;10.30;99.90
23186;DHT22;11761;51.324;4.590;2022-11-06T07:40:20;10.40;99.90
23186;DHT22;11761;51.324;4.590;2022-11-06T07:42:46;10.50;99.90
23186;DHT22;11761;51.324;4.590;2022-11-06T07:45:12;10.50;99.90
23186;DHT22;11761;51.324;4.590;2022-11-06T07:47:38;10.70;99.90
23186;DHT22;11761;51.324;4.590;2022-11-06T07:50:04;10.80;99.90
23186;DHT22;11761;51.324;4.590;2022-11-06T07:52:31;11.00;99.90
23186;DHT22;11761;51.324;4.590;2022-11-06T07:54:58;11.10;99.90
23186;DHT22;11761;51.324;4.590;2022-11-06T07:57:25;11.20;99.90
23186;DHT22;11761;51.324;4.590;2022-11-06T07:59:51;11.20;99.90
23186;DHT22;11761;51.324;4.590;2022-11-06T08:02:17;11.30;99.90
23186;DHT22;11761;51.324;4.590;2022-11-06T08:04:43;11.30;99.90
23186;DHT22;11761;51.324;4.590;2022-11-06T08:07:09;11.40;99.90
23186;DHT22;11761;51.324;4.590;2022-11-06T08:09:35;11.40;99.90
23186;DHT22;11761;51.324;4.590;2022-11-06T08:12:01;11.40;99.90
23186;DHT22;11761;51.324;4.590;2022-11-06T08:14:28;11.40;99.90
23186;DHT22;11761;51.324;4.590;2022-11-06T08:16:54;11.50;99.90
23186;DHT22;11761;51.324;4.590;2022-11-06T08:19:21;11.50;99.90
23186;DHT22;11761;51.324;4.590;2022-11-06T08:21:47;11.50;99.90
23186;DHT22;11761;51.324;4.590;2022-11-06T08:24:13;11.60;99.90
23186;DHT22;11761;51.324;4.590;2022-11-06T08:26:39;11.70;99.90
23186;DHT22;11761;51.324;4.590;2022-11-06T08:29:05;11.80;99.90
23186;DHT22;11761;51.324;4.590;2022-11-06T08:31:32;12.10;99.90
23186;DHT22;11761;51.324;4.590;2022-11-06T08:33:58;12.30;99.90
23186;DHT22;11761;51.324;4.590;2022-11-06T08:36:24;12.20;99.90
23186;DHT22;11761;51.324;4.590;2022-11-06T08:38:50;12.20;99.90
23186;DHT22;11761;51.324;4.590;2022-11-06T08:41:16;12.30;99.90
23186;DHT22;11761;51.324;4.590;2022-11-06T08:43:42;12.30;99.90
23186;DHT22;11761;51.324;4.590;2022-11-06T08:46:09;12.40;99.90
23186;DHT22;11761;51.324;4.590;2022-11-06T08:48:36;12.40;99.90
23186;DHT22;11761;51.324;4.590;2022-11-06T08:51:03;12.40;99.90
23186;DHT22;11761;51.324;4.590;2022-11-06T08:53:29;12.40;99.90
23186;DHT22;11761;51.324;4.590;2022-11-06T08:55:55;12.40;99.90
23186;DHT22;11761;51.324;4.590;2022-11-06T08:58:21;12.50;99.90
23186;DHT22;11761;51.324;4.590;2022-11-06T09:00:48;12.70;99.90
23186;DHT22;11761;51.324;4.590;2022-11-06T09:03:15;12.70;99.90
23186;DHT22;11761;51.324;4.590;2022-11-06T09:05:44;12.70;99.90
23186;DHT22;11761;51.324;4.590;2022-11-06T09:08:11;12.90;99.90
23186;DHT22;11761;51.324;4.590;2022-11-06T09:10:38;13.00;99.90
23186;DHT22;11761;51.324;4.590;2022-11-06T09:13:05;13.10;99.90
23186;DHT22;11761;51.324;4.590;2022-11-06T09:15:32;13.10;99.90
23186;DHT22;11761;51.324;4.590;2022-11-06T09:17:58;12.90;99.90
23186;DHT22;11761;51.324;4.590;2022-11-06T09:20:25;12.80;99.90
23186;DHT22;11761;51.324;4.590;2022-11-06T09:22:51;12.70;99.90
23186;DHT22;11761;51.324;4.590;2022-11-06T09:25:18;12.70;99.90
23186;DHT22;11761;51.324;4.590;2022-11-06T09:27:50;12.60;99.90
23186;DHT22;11761;51.324;4.590;2022-11-06T09:30:18;12.50;99.90
23186;DHT22;11761;51.324;4.590;2022-11-06T09:32:50;12.60;99.90
23186;DHT22;11761;51.324;4.590;2022-11-06T09:35:17;12.60;99.90
23186;DHT22;11761;51.324;4.590;2022-11-06T09:37:43;12.70;99.90
23186;DHT22;11761;51.324;4.590;2022-11-06T09:45:32;12.70;99.90
23186;DHT22;11761;51.324;4.590;2022-11-06T09:51:13;12.80;99.90
23186;DHT22;11761;51.324;4.590;2022-11-06T09:53:33;13.00;99.90
23186;DHT22;11761;51.324;4.590;2022-11-06T09:56:01;13.10;99.90
23186;DHT22;11761;51.324;4.590;2022-11-06T09:58:30;13.10;99.90
23186;DHT22;11761;51.324;4.590;2022-11-06T10:01:05;13.10;99.90
23186;DHT22;11761;51.324;4.590;2022-11-06T10:03:44;13.10;99.90
23186;DHT22;11761;51.324;4.590;2022-11-06T10:06:12;13.20;99.90
23186;DHT22;11761;51.324;4.590;2022-11-06T10:08:40;13.10;99.90
23186;DHT22;11761;51.324;4.590;2022-11-06T10:11:21;13.10;99.90
23186;DHT22;11761;51.324;4.590;2022-11-06T10:17:00;13.20;99.90
23186;DHT22;11761;51.324;4.590;2022-11-06T10:19:52;13.10;99.90
23186;DHT22;11761;51.324;4.590;2022-11-06T10:22:45;13.10;99.90
23186;DHT22;11761;51.324;4.590;2022-11-06T10:25:44;13.10;99.90
23186;DHT22;11761;51.324;4.590;2022-11-06T10:31:18;13.20;99.90
23186;DHT22;11761;51.324;4.590;2022-11-06T10:34:38;13.20;99.90
23186;DHT22;11761;51.324;4.590;2022-11-06T10:36:53;13.30;99.90
23186;DHT22;11761;51.324;4.590;2022-11-06T10:39:30;13.40;99.90
23186;DHT22;11761;51.324;4.590;2022-11-06T10:42:34;13.50;99.90
23186;DHT22;11761;51.324;4.590;2022-11-06T10:45:21;13.50;99.90
23186;DHT22;11761;51.324;4.590;2022-11-06T10:47:55;13.20;99.90
23186;DHT22;11761;51.324;4.590;2022-11-06T10:50:29;13.10;99.90
23186;DHT22;11761;51.324;4.590;2022-11-06T10:53:06;12.90;99.90
23186;DHT22;11761;51.324;4.590;2022-11-06T10:58:05;12.80;99.90
23186;DHT22;11761;51.324;4.590;2022-11-06T11:00:33;12.70;99.90
23186;DHT22;11761;51.324;4.590;2022-11-06T11:03:06;12.70;99.90
23186;DHT22;11761;51.324;4.590;2022-11-06T11:05:41;12.70;99.90
23186;DHT22;11761;51.324;4.590;2022-11-06T11:14:32;12.50;99.90
23186;DHT22;11761;51.324;4.590;2022-11-06T11:16:37;12.40;99.90
23186;DHT22;11761;51.324;4.590;2022-11-06T11:21:58;12.30;99.90
23186;DHT22;11761;51.324;4.590;2022-11-06T11:24:25;12.20;99.90
23186;DHT22;11761;51.324;4.590;2022-11-06T11:27:03;12.20;99.90
23186;DHT22;11761;51.324;4.590;2022-11-06T11:29:41;12.20;99.90
23186;DHT22;11761;51.324;4.590;2022-11-06T11:32:13;12.20;99.90
23186;DHT22;11761;51.324;4.590;2022-11-06T11:34:58;12.10;99.90
23186;DHT22;11761;51.324;4.590;2022-11-06T11:37:32;12.10;99.90
23186;DHT22;11761;51.324;4.590;2022-11-06T11:42:43;12.00;99.90
23186;DHT22;11761;51.324;4.590;2022-11-06T11:45:13;11.90;99.90
23186;DHT22;11761;51.324;4.590;2022-11-06T11:47:50;11.90;99.90
23186;DHT22;11761;51.324;4.590;2022-11-06T11:50:32;11.90;99.90
23186;DHT22;11761;51.324;4.590;2022-11-06T11:53:12;11.90;99.90
23186;DHT22;11761;51.324;4.590;2022-11-06T11:55:44;11.90;99.90
23186;DHT22;11761;51.324;4.590;2022-11-06T11:58:23;11.90;99.90
23186;DHT22;11761;51.324;4.590;2022-11-06T12:00:56;11.90;99.90
23186;DHT22;11761;51.324;4.590;2022-11-06T12:03:26;11.90;99.90
23186;DHT22;11761;51.324;4.590;2022-11-06T12:06:04;11.80;99.90
23186;DHT22;11761;51.324;4.590;2022-11-06T12:08:30;11.80;99.90
23186;DHT22;11761;51.324;4.590;2022-11-06T12:11:02;11.70;99.90
23186;DHT22;11761;51.324;4.590;2022-11-06T12:13:28;11.70;99.90
23186;DHT22;11761;51.324;4.590;2022-11-06T12:16:03;11.70;99.90
23186;DHT22;11761;51.324;4.590;2022-11-06T12:18:33;11.70;99.90
23186;DHT22;11761;51.324;4.590;2022-11-06T12:21:21;11.70;99.90
23186;DHT22;11761;51.324;4.590;2022-11-06T12:24:13;11.60;99.90
23186;DHT22;11761;51.324;4.590;2022-11-06T12:26:54;11.50;99.90
23186;DHT22;11761;51.324;4.590;2022-11-06T12:29:32;11.50;99.90
23186;DHT22;11761;51.324;4.590;2022-11-06T12:34:52;11.40;99.90
23186;DHT22;11761;51.324;4.590;2022-11-06T12:37:38;11.30;99.90
23186;DHT22;11761;51.324;4.590;2022-11-06T12:40:29;11.20;99.90
23186;DHT22;11761;51.324;4.590;2022-11-06T12:45:48;11.00;99.90
23186;DHT22;11761;51.324;4.590;2022-11-06T12:59:33;10.60;99.90
23186;DHT22;11761;51.324;4.590;2022-11-06T13:05:02;10.20;99.90
23186;DHT22;11761;51.324;4.590;2022-11-06T13:30:19;9.90;99.90
23186;DHT22;11761;51.324;4.590;2022-11-06T13:35:47;9.70;99.90
23186;DHT22;11761;51.324;4.590;2022-11-06T13:38:17;9.70;99.90
23186;DHT22;11761;51.324;4.590;2022-11-06T13:40:50;9.60;99.90
23186;DHT22;11761;51.324;4.590;2022-11-06T13:43:29;9.60;99.90
23186;DHT22;11761;51.324;4.590;2022-11-06T13:46:17;9.50;99.90
23186;DHT22;11761;51.324;4.590;2022-11-06T14:05:07;9.30;99.90
23186;DHT22;11761;51.324;4.590;2022-11-06T14:07:43;9.30;99.90
23186;DHT22;11761;51.324;4.590;2022-11-06T14:10:18;9.30;99.90
23186;DHT22;11761;51.324;4.590;2022-11-06T14:12:46;9.20;99.90
23186;DHT22;11761;51.324;4.590;2022-11-06T14:15:22;9.20;99.90
23186;DHT22;11761;51.324;4.590;2022-11-06T14:18:00;9.10;99.90
23186;DHT22;11761;51.324;4.590;2022-11-06T14:20:32;9.10;99.90
23186;DHT22;11761;51.324;4.590;2022-11-06T14:26:10;9.10;99.90
23186;DHT22;11761;51.324;4.590;2022-11-06T14:28:39;9.10;99.90
23186;DHT22;11761;51.324;4.590;2022-11-06T14:31:06;9.00;99.90
23186;DHT22;11761;51.324;4.590;2022-11-06T14:36:30;8.90;99.90
23186;DHT22;11761;51.324;4.590;2022-11-06T14:38:57;8.90;99.90
23186;DHT22;11761;51.324;4.590;2022-11-06T14:46:36;8.80;99.90
23186;DHT22;11761;51.324;4.590;2022-11-06T14:52:03;8.70;99.90
23186;DHT22;11761;51.324;4.590;2022-11-06T14:54:33;8.70;99.90
23186;DHT22;11761;51.324;4.590;2022-11-06T14:57:00;8.70;99.90
23186;DHT22;11761;51.324;4.590;2022-11-06T14:59:32;8.70;99.90
23186;DHT22;11761;51.324;4.590;2022-11-06T15:02:22;8.60;99.90
23186;DHT22;11761;51.324;4.590;2022-11-06T15:05:20;8.60;99.90
23186;DHT22;11761;51.324;4.590;2022-11-06T15:15:43;8.40;99.90
23186;DHT22;11761;51.324;4.590;2022-11-06T15:18:12;8.40;99.90
23186;DHT22;11761;51.324;4.590;2022-11-06T15:20:39;8.40;99.90
23186;DHT22;11761;51.324;4.590;2022-11-06T15:23:13;8.40;99.90
23186;DHT22;11761;51.324;4.590;2022-11-06T15:26:19;8.30;99.90
23186;DHT22;11761;51.324;4.590;2022-11-06T15:31:28;8.30;99.90
23186;DHT22;11761;51.324;4.590;2022-11-06T15:34:00;8.30;99.90
23186;DHT22;11761;51.324;4.590;2022-11-06T15:36:31;8.30;99.90
23186;DHT22;11761;51.324;4.590;2022-11-06T15:38:59;8.20;99.90
23186;DHT22;11761;51.324;4.590;2022-11-06T15:41:26;8.20;99.90
23186;DHT22;11761;51.324;4.590;2022-11-06T15:43:53;8.20;99.90
23186;DHT22;11761;51.324;4.590;2022-11-06T15:49:22;8.20;99.90
23186;DHT22;11761;51.324;4.590;2022-11-06T15:51:54;8.10;99.90
23186;DHT22;11761;51.324;4.590;2022-11-06T15:54:39;8.10;99.90
23186;DHT22;11761;51.324;4.590;2022-11-06T15:57:21;8.10;99.90
23186;DHT22;11761;51.324;4.590;2022-11-06T15:59:49;8.10;99.90
23186;DHT22;11761;51.324;4.590;2022-11-06T16:02:20;8.10;99.90
23186;DHT22;11761;51.324;4.590;2022-11-06T16:04:50;8.10;99.90
23186;DHT22;11761;51.324;4.590;2022-11-06T16:07:17;8.00;99.90
23186;DHT22;11761;51.324;4.590;2022-11-06T16:09:44;8.00;99.90
23186;DHT22;11761;51.324;4.590;2022-11-06T16:12:13;8.00;99.90
23186;DHT22;11761;51.324;4.590;2022-11-06T16:14:41;8.00;99.90
23186;DHT22;11761;51.324;4.590;2022-11-06T16:17:15;8.00;99.90
23186;DHT22;11761;51.324;4.590;2022-11-06T16:19:42;8.00;99.90
23186;DHT22;11761;51.324;4.590;2022-11-06T16:22:17;8.00;99.90
23186;DHT22;11761;51.324;4.590;2022-11-06T16:24:50;8.00;99.90
23186;DHT22;11761;51.324;4.590;2022-11-06T16:27:19;8.00;99.90
23186;DHT22;11761;51.324;4.590;2022-11-06T16:29:52;8.00;99.90
23186;DHT22;11761;51.324;4.590;2022-11-06T16:32:29;8.00;99.90
23186;DHT22;11761;51.324;4.590;2022-11-06T16:34:56;7.90;99.90
23186;DHT22;11761;51.324;4.590;2022-11-06T16:39:58;8.00;99.90
23186;DHT22;11761;51.324;4.590;2022-11-06T16:42:31;8.00;99.90
23186;DHT22;11761;51.324;4.590;2022-11-06T16:45:18;8.00;99.90
23186;DHT22;11761;51.324;4.590;2022-11-06T16:50:46;8.00;99.90
23186;DHT22;11761;51.324;4.590;2022-11-06T16:53:30;8.00;99.90
23186;DHT22;11761;51.324;4.590;2022-11-06T16:56:05;8.00;99.90
23186;DHT22;11761;51.324;4.590;2022-11-06T16:58:34;8.00;99.90
23186;DHT22;11761;51.324;4.590;2022-11-06T17:01:03;8.00;99.90
23186;DHT22;11761;51.324;4.590;2022-11-06T17:03:38;8.00;99.90
23186;DHT22;11761;51.324;4.590;2022-11-06T17:06:05;8.00;99.90
23186;DHT22;11761;51.324;4.590;2022-11-06T17:08:37;8.10;99.90
23186;DHT22;11761;51.324;4.590;2022-11-06T17:11:13;8.10;99.90
23186;DHT22;11761;51.324;4.590;2022-11-06T17:13:44;8.10;99.90
23186;DHT22;11761;51.324;4.590;2022-11-06T17:16:20;8.10;99.90
23186;DHT22;11761;51.324;4.590;2022-11-06T17:18:47;8.10;99.90
23186;DHT22;11761;51.324;4.590;2022-11-06T17:21:16;8.20;99.90
23186;DHT22;11761;51.324;4.590;2022-11-06T17:23:44;8.20;99.90
23186;DHT22;11761;51.324;4.590;2022-11-06T17:26:27;8.20;99.90
23186;DHT22;11761;51.324;4.590;2022-11-06T17:28:58;8.20;99.90
23186;DHT22;11761;51.324;4.590;2022-11-06T17:31:25;8.20;99.90
23186;DHT22;11761;51.324;4.590;2022-11-06T17:33:52;8.30;99.90
23186;DHT22;11761;51.324;4.590;2022-11-06T17:36:22;8.30;99.90
23186;DHT22;11761;51.324;4.590;2022-11-06T17:38:50;8.30;99.90
23186;DHT22;11761;51.324;4.590;2022-11-06T17:41:17;8.40;99.90
23186;DHT22;11761;51.324;4.590;2022-11-06T17:43:56;8.40;99.90
23186;DHT22;11761;51.324;4.590;2022-11-06T17:46:30;8.40;99.90
23186;DHT22;11761;51.324;4.590;2022-11-06T17:48:57;8.40;99.90
23186;DHT22;11761;51.324;4.590;2022-11-06T17:51:24;8.40;99.90
23186;DHT22;11761;51.324;4.590;2022-11-06T17:54:09;8.50;99.90
23186;DHT22;11761;51.324;4.590;2022-11-06T17:56:36;8.50;99.90
23186;DHT22;11761;51.324;4.590;2022-11-06T17:59:02;8.50;99.90
23186;DHT22;11761;51.324;4.590;2022-11-06T18:01:28;8.60;99.90
23186;DHT22;11761;51.324;4.590;2022-11-06T18:03:54;8.60;99.90
23186;DHT22;11761;51.324;4.590;2022-11-06T18:06:21;8.60;99.90
23186;DHT22;11761;51.324;4.590;2022-11-06T18:08:47;8.70;99.90
23186;DHT22;11761;51.324;4.590;2022-11-06T18:11:13;8.70;99.90
23186;DHT22;11761;51.324;4.590;2022-11-06T18:13:39;8.80;99.90
23186;DHT22;11761;51.324;4.590;2022-11-06T18:16:14;8.80;99.90
23186;DHT22;11761;51.324;4.590;2022-11-06T18:18:41;8.80;99.90
23186;DHT22;11761;51.324;4.590;2022-11-06T18:21:07;8.90;99.90
23186;DHT22;11761;51.324;4.590;2022-11-06T18:23:35;8.90;99.90
23186;DHT22;11761;51.324;4.590;2022-11-06T18:26:01;8.90;99.90
23186;DHT22;11761;51.324;4.590;2022-11-06T18:28:27;8.90;99.90
23186;DHT22;11761;51.324;4.590;2022-11-06T18:30:53;9.00;99.90
23186;DHT22;11761;51.324;4.590;2022-11-06T18:33:19;9.00;99.90
23186;DHT22;11761;51.324;4.590;2022-11-06T18:35:45;9.00;99.90
23186;DHT22;11761;51.324;4.590;2022-11-06T18:38:13;9.10;99.90